LGTSLGAL

Guest
Details From LGTS - Thessalonik Makedonia
To LGAL - Alexandroupolis Dimokritos
Flight Number -
Tags decoded
Created
Modified
Stats Distance 138 nm / 255 km
Max Altitude 0 ft / 0 m
Waypoints 7
Social Downloads 0
Likes 0
Share VATSIM

Download

Looking for another format? Having issues loading an existing format? Contact us
Advertisement - Login to hide

Notes

Requested: LGTS ARNAS UM603 IDILO LGAL

Route

LGTS ARNAS UM603 IDILO LGAL

ID Type Via Altitude Latitude Longitude Leg Dist Tot Dist Heading (true) Name
O LGTS APT - 0 ft / 0 m 40.51952˚ 22.97202˚ - 0 nm - Thessalonik Makedonia
ARNAS FIX - 0 ft / 0 m 40.52806˚ 23.48056˚ 23 nm 23 nm 89° / 89° -
PEREN FIX UM603 (AWY-HI) 0 ft / 0 m 40.59667˚ 23.96778˚ 22 nm 45 nm 79° / 80° -
ASKOS FIX UM603 (AWY-HI) 0 ft / 0 m 40.63806˚ 24.27028˚ 14 nm 59 nm 80° / 80° -
BERIL FIX UM603 (AWY-HI) 0 ft / 0 m 40.70194˚ 24.74861˚ 22 nm 81 nm 80° / 80° -
IDILO FIX UM603 (AWY-HI) 0 ft / 0 m 40.79056˚ 25.43944˚ 31 nm 113 nm 80° / 81° -
O LGAL APT - 0 ft / 0 m 40.85587˚ 25.95626˚ 23 nm 137 nm 80° / 81° Alexandroupolis Dimokritos

Altitude Profile

Advertisement - Login to hide

LGTS

Details ICAO LGTS (SKG)
Name Thessalonik Makedonia
Region Greece
Timezone Europe/Athens (UTC+3.0)
Stats Elevation 22 ft / 7 m (AMSL)
Location 40.519522° 22.972017°
Runways 2
Magnetic Variation 4.666° E

METAR

LGTS 201950Z VRB03KT 9999 FEW018TCU SCT025 21/15 Q1016 NOSIG

Decode

TAF

TAF LGTS 201700Z 2018/2118 VRB03KT 9999 SCT025 PROB40 TEMPO 2018/2020 4000 TSRA FEW008 FEW015CB BKN020 PROB40 TEMPO 2100/2116 6000 SHRA FEW020CB BKN025 BECMG 2116/2118 FEW030

Decode

Departure Runways

ID Width Length Bearing (true) Bearing (mag) Surface Threshold Offset Overrun Length
10 164 ft / 50 m 7,990 ft / 2,435 m 103.95° 99.28° Asphalt 0 ft / 0 m 150 ft / 46 m
16 197 ft / 60 m 7,927 ft / 2,416 m 166.35° 161.68° Asphalt 0 ft / 0 m 200 ft / 61 m
28 164 ft / 50 m 7,990 ft / 2,435 m 283.97° 279.30° Asphalt 0 ft / 0 m 150 ft / 46 m
34 197 ft / 60 m 7,927 ft / 2,416 m 346.36° 341.69° Asphalt 0 ft / 0 m 200 ft / 61 m

LGAL

Details ICAO LGAL (AXD)
Name Alexandroupolis Dimokritos
Region Greece
Timezone Europe/Athens (UTC+3.0)
Stats Elevation 24 ft / 7 m (AMSL)
Location 40.855869° 25.956264°
Runways 1
Magnetic Variation 5.106° E

METAR

LGAL 201920Z VRB03KT 9999 FEW030 20/16 Q1014

Decode

TAF

Not found

Destination Runways

ID Width Length Bearing (true) Bearing (mag) Surface Threshold Offset Overrun Length
07 148 ft / 45 m 8,403 ft / 2,561 m 72.93° 67.82° Asphalt 0 ft / 0 m 200 ft / 61 m
25 148 ft / 45 m 8,403 ft / 2,561 m 252.95° 247.84° Asphalt 0 ft / 0 m 200 ft / 61 m

Popular Alternatives